createdAt,value
2022-09-06T00:01:49.174Z,21.90
2022-09-06T00:04:15.825Z,22.00
2022-09-06T00:06:42.375Z,21.90
2022-09-06T00:09:08.878Z,21.90
2022-09-06T00:11:35.404Z,21.80
2022-09-06T00:14:01.909Z,21.70
2022-09-06T00:16:30.489Z,21.60
2022-09-06T00:18:57.216Z,21.60
2022-09-06T00:21:23.758Z,21.60
2022-09-06T00:23:50.352Z,21.50
2022-09-06T00:26:16.928Z,21.30
2022-09-06T00:28:43.669Z,21.30
2022-09-06T00:31:10.255Z,21.30
2022-09-06T00:33:36.803Z,21.20
2022-09-06T00:36:03.307Z,21.20
2022-09-06T00:38:29.865Z,21.10
2022-09-06T00:40:57.160Z,21.00
2022-09-06T00:43:23.709Z,21.00
2022-09-06T00:45:50.296Z,20.90
2022-09-06T00:48:16.956Z,20.90
2022-09-06T00:50:43.442Z,20.90
2022-09-06T00:53:09.946Z,20.80
2022-09-06T00:55:36.464Z,20.70
2022-09-06T00:58:02.965Z,20.70
2022-09-06T01:00:29.639Z,20.60
2022-09-06T01:02:56.183Z,20.50
2022-09-06T01:05:22.784Z,20.60
2022-09-06T01:07:49.278Z,20.50
2022-09-06T01:10:15.889Z,20.50
2022-09-06T01:12:42.466Z,20.40
2022-09-06T01:15:09.020Z,20.40
2022-09-06T01:17:35.568Z,20.40
2022-09-06T01:20:02.095Z,20.40
2022-09-06T01:22:28.749Z,20.40
2022-09-06T01:24:55.396Z,20.40
2022-09-06T01:27:21.927Z,20.40
2022-09-06T01:29:48.444Z,20.40
2022-09-06T01:32:14.950Z,20.40
2022-09-06T01:34:41.471Z,20.40
2022-09-06T01:37:10.307Z,20.40
2022-09-06T01:39:37.361Z,20.40
2022-09-06T01:42:03.889Z,20.40
2022-09-06T01:44:30.453Z,20.50
2022-09-06T01:46:56.938Z,20.50
2022-09-06T01:49:23.455Z,20.50
2022-09-06T01:51:49.944Z,20.50
2022-09-06T01:54:16.537Z,20.50
2022-09-06T01:56:43.089Z,20.50
2022-09-06T01:59:09.627Z,20.50
2022-09-06T02:01:36.159Z,20.50
2022-09-06T02:04:02.785Z,20.50
2022-09-06T02:06:29.316Z,20.40
2022-09-06T02:08:55.878Z,20.30
2022-09-06T02:11:22.418Z,20.30
2022-09-06T02:13:48.981Z,20.20
2022-09-06T02:16:15.687Z,20.20
2022-09-06T02:18:42.267Z,20.20
2022-09-06T02:21:08.762Z,20.20
2022-09-06T02:23:35.316Z,20.20
2022-09-06T02:26:01.882Z,20.20
2022-09-06T02:28:28.580Z,20.30
2022-09-06T02:30:55.225Z,20.30
2022-09-06T02:33:21.850Z,20.40
2022-09-06T02:35:48.795Z,20.40
2022-09-06T02:38:15.354Z,20.30
2022-09-06T02:40:43.123Z,20.40
2022-09-06T02:43:09.630Z,20.30
2022-09-06T02:45:36.210Z,20.30
2022-09-06T02:48:02.846Z,20.40
2022-09-06T02:50:29.402Z,20.40
2022-09-06T02:52:55.928Z,20.40
2022-09-06T02:55:22.433Z,20.30
2022-09-06T02:57:48.992Z,20.30
2022-09-06T03:00:15.487Z,20.30
2022-09-06T03:02:42.232Z,20.30
2022-09-06T03:05:08.763Z,20.30
2022-09-06T03:07:35.452Z,20.20
2022-09-06T03:10:02.435Z,20.30
2022-09-06T03:12:28.944Z,20.20
2022-09-06T03:14:55.460Z,20.20
2022-09-06T03:17:21.996Z,20.20
2022-09-06T03:19:48.493Z,20.20
2022-09-06T03:22:15.009Z,20.20
2022-09-06T03:24:41.629Z,20.20
2022-09-06T03:27:08.300Z,20.20
2022-09-06T03:29:34.853Z,20.20
2022-09-06T03:32:01.368Z,20.20
2022-09-06T03:34:27.864Z,20.20
2022-09-06T03:36:54.362Z,20.20
2022-09-06T03:39:21.245Z,20.20
2022-09-06T03:41:47.733Z,20.10
2022-09-06T03:44:14.244Z,20.10
2022-09-06T03:46:40.831Z,20.10
2022-09-06T03:49:10.074Z,20.10
2022-09-06T03:51:36.587Z,20.00
2022-09-06T03:54:03.140Z,20.00
2022-09-06T03:56:29.740Z,19.80
2022-09-06T03:58:56.295Z,19.60
2022-09-06T04:01:22.836Z,19.60
2022-09-06T04:03:49.393Z,19.60
2022-09-06T04:06:15.956Z,19.50
2022-09-06T04:08:42.474Z,19.50
2022-09-06T04:11:08.979Z,19.40
2022-09-06T04:13:35.483Z,19.40
2022-09-06T04:16:02.035Z,19.40
2022-09-06T04:18:28.663Z,19.30
2022-09-06T04:20:56.201Z,19.30
2022-09-06T04:23:22.732Z,19.30
2022-09-06T04:25:49.299Z,19.30
2022-09-06T04:28:15.877Z,19.20
2022-09-06T04:30:42.358Z,19.20
2022-09-06T04:33:08.864Z,19.20
2022-09-06T04:35:35.464Z,19.10
2022-09-06T04:38:01.979Z,19.10
2022-09-06T04:40:28.523Z,19.10
2022-09-06T04:42:55.055Z,19.10
2022-09-06T04:45:21.604Z,19.10
2022-09-06T04:47:50.248Z,19.10
2022-09-06T04:50:16.765Z,19.10
2022-09-06T04:52:43.280Z,19.10
2022-09-06T04:55:09.819Z,19.10
2022-09-06T04:57:37.505Z,19.10
2022-09-06T05:00:06.473Z,19.20
2022-09-06T05:02:33.052Z,19.20
2022-09-06T05:04:59.639Z,19.20
2022-09-06T05:07:26.137Z,19.20
2022-09-06T05:09:52.736Z,19.30
2022-09-06T05:12:19.226Z,19.30
2022-09-06T05:14:45.772Z,19.30
2022-09-06T05:17:14.657Z,19.40
2022-09-06T05:19:41.164Z,19.40
2022-09-06T05:22:07.758Z,19.40
2022-09-06T05:24:34.280Z,19.40
2022-09-06T05:27:03.761Z,19.40
2022-09-06T05:29:30.772Z,19.40
2022-09-06T05:31:57.456Z,19.40
2022-09-06T05:34:23.969Z,19.40
2022-09-06T05:36:50.493Z,19.40
2022-09-06T05:39:20.996Z,19.40
2022-09-06T05:41:47.624Z,19.40
2022-09-06T05:44:14.426Z,19.40
2022-09-06T05:46:40.917Z,19.40
2022-09-06T05:49:08.049Z,19.40
2022-09-06T05:51:34.599Z,19.40
2022-09-06T05:54:01.121Z,19.40
2022-09-06T05:56:27.642Z,19.50
2022-09-06T05:58:54.121Z,19.40
2022-09-06T06:01:20.695Z,19.40
2022-09-06T06:03:47.359Z,19.40
2022-09-06T06:06:13.852Z,19.40
2022-09-06T06:08:40.365Z,19.30
2022-09-06T06:11:06.862Z,19.30
2022-09-06T06:13:36.667Z,19.30
2022-09-06T06:16:03.413Z,19.30
2022-09-06T06:18:30.075Z,19.30
2022-09-06T06:20:56.767Z,19.30
2022-09-06T06:23:23.304Z,19.30
2022-09-06T06:25:49.796Z,19.30
2022-09-06T06:28:16.294Z,19.30
2022-09-06T06:30:42.813Z,19.40
2022-09-06T06:33:09.325Z,19.40
2022-09-06T06:35:39.959Z,19.50
2022-09-06T06:38:06.734Z,19.40
2022-09-06T06:40:33.581Z,19.50
2022-09-06T06:43:01.496Z,19.50
2022-09-06T06:45:28.117Z,19.50
2022-09-06T06:47:54.771Z,19.60
2022-09-06T06:50:21.330Z,19.70
2022-09-06T06:52:47.890Z,19.80
2022-09-06T06:55:15.026Z,19.90
2022-09-06T06:57:41.643Z,19.90
2022-09-06T07:00:08.309Z,20.00
2022-09-06T07:02:34.967Z,20.10
2022-09-06T07:05:02.161Z,20.20
2022-09-06T07:12:47.008Z,20.60
2022-09-06T07:15:13.958Z,20.70
2022-09-06T07:17:40.611Z,20.80
2022-09-06T07:20:14.973Z,20.90
2022-09-06T07:22:42.117Z,21.00
2022-09-06T07:25:08.789Z,21.10
2022-09-06T07:27:50.856Z,21.20
2022-09-06T07:30:18.006Z,21.30
2022-09-06T07:32:44.666Z,21.40
2022-09-06T07:35:13.770Z,21.50
2022-09-06T07:37:40.368Z,21.60
2022-09-06T07:40:07.065Z,21.80
2022-09-06T07:42:36.401Z,21.90
2022-09-06T07:45:03.242Z,22.00
2022-09-06T07:55:32.670Z,22.20
2022-09-06T07:57:59.235Z,22.40
2022-09-06T08:00:25.795Z,22.40
2022-09-06T08:02:53.432Z,22.50
2022-09-06T08:10:53.325Z,22.80
2022-09-06T08:13:19.913Z,22.80
2022-09-06T08:15:46.582Z,22.90
2022-09-06T08:18:13.224Z,22.90
2022-09-06T08:20:39.797Z,23.10
2022-09-06T08:23:06.367Z,23.20
2022-09-06T08:25:32.967Z,23.30
2022-09-06T08:27:59.760Z,23.40
2022-09-06T08:30:27.613Z,23.50
2022-09-06T08:32:54.228Z,23.50
2022-09-06T08:35:20.894Z,23.60
2022-09-06T08:37:47.404Z,23.70
2022-09-06T08:40:14.090Z,23.70
2022-09-06T08:42:40.806Z,23.90
2022-09-06T08:45:12.502Z,23.90
2022-09-06T08:47:39.060Z,24.00
2022-09-06T08:50:05.596Z,24.20
2022-09-06T08:52:32.223Z,24.30
2022-09-06T08:54:58.783Z,24.40
2022-09-06T08:57:25.317Z,24.50
2022-09-06T08:59:51.869Z,24.60
2022-09-06T09:02:18.512Z,24.70
2022-09-06T09:04:45.467Z,24.80
2022-09-06T09:07:12.089Z,24.90
2022-09-06T09:09:38.638Z,25.00
2022-09-06T09:12:05.182Z,25.10
2022-09-06T09:14:35.344Z,25.20
2022-09-06T09:17:02.022Z,25.10
2022-09-06T09:19:32.082Z,25.20
2022-09-06T09:21:58.607Z,25.30
2022-09-06T09:24:25.221Z,25.40
2022-09-06T09:26:51.867Z,25.50
2022-09-06T09:29:18.501Z,25.70
2022-09-06T09:31:46.996Z,25.90
2022-09-06T09:34:15.296Z,25.90
2022-09-06T09:39:28.634Z,26.10
2022-09-06T09:41:55.256Z,26.20
2022-09-06T09:44:28.048Z,26.30
2022-09-06T09:46:54.588Z,26.40
2022-09-06T09:49:21.157Z,26.50
2022-09-06T09:51:47.840Z,26.70
2022-09-06T09:54:14.521Z,26.60
2022-09-06T09:56:41.093Z,26.70
2022-09-06T09:59:08.325Z,26.80
2022-09-06T10:01:34.871Z,26.90
2022-09-06T10:09:34.813Z,26.90
2022-09-06T10:12:01.637Z,26.90
2022-09-06T10:14:28.407Z,26.90
2022-09-06T10:16:54.996Z,27.00
2022-09-06T10:19:21.743Z,27.00
2022-09-06T10:21:48.259Z,27.00
2022-09-06T10:24:30.174Z,27.10
2022-09-06T10:26:56.879Z,27.20
2022-09-06T10:29:23.400Z,27.30
2022-09-06T10:31:50.055Z,27.40
2022-09-06T10:34:16.782Z,27.40
2022-09-06T10:36:44.189Z,27.40
2022-09-06T10:39:10.875Z,27.50
2022-09-06T10:41:37.432Z,27.50
2022-09-06T10:44:03.957Z,27.50
2022-09-06T10:46:31.661Z,27.40
2022-09-06T10:48:58.301Z,27.50
2022-09-06T10:51:24.889Z,27.60
2022-09-06T10:53:51.417Z,27.70
2022-09-06T10:56:18.350Z,27.80
2022-09-06T11:01:31.683Z,27.90
2022-09-06T11:04:02.036Z,27.90
2022-09-06T11:06:33.460Z,27.90
2022-09-06T11:09:00.122Z,28.00
2022-09-06T11:11:26.745Z,28.10
2022-09-06T11:13:53.383Z,28.30
2022-09-06T11:16:20.509Z,28.30
2022-09-06T11:18:47.111Z,28.20
2022-09-06T11:21:18.785Z,28.30
2022-09-06T11:23:48.128Z,28.40
2022-09-06T11:26:14.693Z,28.50
2022-09-06T11:28:41.242Z,28.70
2022-09-06T11:31:07.789Z,28.90
2022-09-06T11:33:39.929Z,29.10
2022-09-06T11:36:06.539Z,29.10
2022-09-06T11:38:33.160Z,29.20
2022-09-06T11:40:59.750Z,29.20
2022-09-06T11:43:26.439Z,29.10
2022-09-06T11:45:53.064Z,29.10
2022-09-06T11:48:19.605Z,28.90
2022-09-06T11:50:46.143Z,28.90
2022-09-06T11:53:12.931Z,29.10
2022-09-06T11:55:39.516Z,29.10
2022-09-06T11:58:06.043Z,29.20
2022-09-06T12:00:32.772Z,29.10
2022-09-06T12:05:46.007Z,29.20
2022-09-06T12:08:12.633Z,29.20
2022-09-06T12:10:39.307Z,29.40
2022-09-06T12:13:05.854Z,29.60
2022-09-06T12:15:32.434Z,29.70
2022-09-06T12:17:58.997Z,29.70
2022-09-06T12:20:25.567Z,29.80
2022-09-06T12:22:52.221Z,29.80
2022-09-06T12:25:18.972Z,29.60
2022-09-06T12:27:46.611Z,29.40
2022-09-06T12:30:13.151Z,29.10
2022-09-06T12:32:39.691Z,29.10
2022-09-06T12:37:52.875Z,29.40
2022-09-06T12:40:19.412Z,29.60
2022-09-06T12:42:45.980Z,29.70
2022-09-06T12:45:12.475Z,29.60
2022-09-06T12:47:40.065Z,29.50
2022-09-06T12:50:07.493Z,29.40
2022-09-06T12:52:34.037Z,29.40
2022-09-06T12:55:01.196Z,29.50
2022-09-06T12:57:27.720Z,29.60
2022-09-06T12:59:54.295Z,29.60
2022-09-06T13:02:20.930Z,29.50
2022-09-06T13:04:48.696Z,29.50
2022-09-06T13:07:15.359Z,29.60
2022-09-06T13:09:41.940Z,29.70
2022-09-06T13:12:08.807Z,29.90
2022-09-06T13:14:35.409Z,30.00
2022-09-06T13:17:02.031Z,30.10
2022-09-06T13:19:29.663Z,29.80
2022-09-06T13:21:57.495Z,29.90
2022-09-06T13:24:24.079Z,30.10
2022-09-06T13:26:50.656Z,30.30
2022-09-06T13:29:17.206Z,30.40
2022-09-06T13:31:43.793Z,30.40
2022-09-06T13:34:10.340Z,30.30
2022-09-06T13:36:36.997Z,30.30
2022-09-06T13:39:04.383Z,30.30
2022-09-06T13:41:31.033Z,30.30
2022-09-06T13:43:58.171Z,30.40
2022-09-06T13:46:24.765Z,30.50
2022-09-06T13:48:51.435Z,30.20
2022-09-06T13:51:18.362Z,29.90
2022-09-06T13:53:44.944Z,29.70
2022-09-06T13:56:11.963Z,29.80
2022-09-06T13:58:38.545Z,29.90
2022-09-06T14:01:08.512Z,29.90
2022-09-06T14:03:35.273Z,30.00
2022-09-06T14:06:01.858Z,30.00
2022-09-06T14:08:38.860Z,30.10
2022-09-06T14:11:14.953Z,30.20
2022-09-06T14:13:41.752Z,30.50
2022-09-06T14:16:08.390Z,30.60
2022-09-06T14:18:35.048Z,30.60
2022-09-06T14:21:01.595Z,30.70
2022-09-06T14:23:28.194Z,30.90
2022-09-06T14:25:54.743Z,30.80
2022-09-06T14:28:21.419Z,30.50
2022-09-06T14:30:48.036Z,30.00
2022-09-06T14:33:14.724Z,29.60
2022-09-06T14:35:41.325Z,29.40
2022-09-06T14:38:07.883Z,29.00
2022-09-06T14:40:34.437Z,28.90
2022-09-06T14:43:01.027Z,28.80
2022-09-06T14:45:27.693Z,28.60
2022-09-06T14:47:54.359Z,28.60
2022-09-06T14:50:20.953Z,28.60
2022-09-06T14:52:47.625Z,28.90
2022-09-06T14:55:14.344Z,29.00
2022-09-06T14:57:40.882Z,29.10
2022-09-06T15:00:10.259Z,29.00
2022-09-06T15:02:37.157Z,28.90
2022-09-06T15:05:03.941Z,28.80
2022-09-06T15:07:31.411Z,28.90
2022-09-06T15:09:57.994Z,29.00
2022-09-06T15:12:24.632Z,29.10
2022-09-06T15:14:51.168Z,29.20
2022-09-06T15:17:17.707Z,29.40
2022-09-06T15:19:44.770Z,29.50
2022-09-06T15:22:11.292Z,29.70
2022-09-06T15:24:38.508Z,29.80
2022-09-06T15:27:05.297Z,29.90
2022-09-06T15:29:31.871Z,29.90
2022-09-06T15:31:58.435Z,30.00
2022-09-06T15:34:25.012Z,30.10
2022-09-06T15:36:51.681Z,30.10
2022-09-06T15:39:18.224Z,30.00
2022-09-06T15:41:44.820Z,30.00
2022-09-06T15:44:11.862Z,30.10
2022-09-06T15:46:39.748Z,30.10
2022-09-06T15:49:06.395Z,30.10
2022-09-06T15:51:33.017Z,30.10
2022-09-06T15:53:59.571Z,30.30
2022-09-06T15:56:26.135Z,30.40
2022-09-06T15:58:52.875Z,30.50
2022-09-06T16:01:19.500Z,30.50
2022-09-06T16:03:46.088Z,30.60
2022-09-06T16:06:28.533Z,30.50
2022-09-06T16:08:55.456Z,30.50
2022-09-06T16:11:22.007Z,30.50
2022-09-06T16:13:48.543Z,30.60
2022-09-06T16:16:15.089Z,30.60
2022-09-06T16:18:42.399Z,30.70
2022-09-06T16:21:09.099Z,30.70
2022-09-06T16:23:36.147Z,30.70
2022-09-06T16:26:02.649Z,30.70
2022-09-06T16:28:29.343Z,30.70
2022-09-06T16:30:56.115Z,30.80
2022-09-06T16:33:22.643Z,30.70
2022-09-06T16:35:49.166Z,30.70
2022-09-06T16:38:15.713Z,30.70
2022-09-06T16:40:42.233Z,30.70
2022-09-06T16:43:08.773Z,30.70
2022-09-06T16:45:35.331Z,30.70
2022-09-06T16:48:01.906Z,30.60
2022-09-06T16:50:28.928Z,30.50
2022-09-06T16:52:55.498Z,30.50
2022-09-06T16:55:22.027Z,30.50
2022-09-06T16:57:48.605Z,30.60
2022-09-06T17:00:15.990Z,30.60
2022-09-06T17:02:47.005Z,30.70
2022-09-06T17:05:14.421Z,30.70
2022-09-06T17:07:41.441Z,30.70
2022-09-06T17:10:07.935Z,30.60
2022-09-06T17:12:34.442Z,30.50
2022-09-06T17:15:00.918Z,30.40
2022-09-06T17:17:27.784Z,30.40
2022-09-06T17:19:54.288Z,30.30
2022-09-06T17:22:21.527Z,30.00
2022-09-06T17:24:48.179Z,29.60
2022-09-06T17:27:14.778Z,29.10
2022-09-06T17:29:41.332Z,28.70
2022-09-06T17:32:11.108Z,28.30
2022-09-06T17:34:37.657Z,28.00
2022-09-06T17:37:04.219Z,27.70
2022-09-06T17:39:30.906Z,27.40
2022-09-06T17:41:58.673Z,27.10
2022-09-06T17:44:25.339Z,26.90
2022-09-06T17:47:11.572Z,26.70
2022-09-06T17:49:39.190Z,26.60
2022-09-06T17:52:05.753Z,26.30
2022-09-06T17:54:32.329Z,26.10
2022-09-06T17:56:58.957Z,25.90
2022-09-06T17:59:34.847Z,25.80
2022-09-06T18:02:03.243Z,25.60
2022-09-06T18:04:29.800Z,25.50
2022-09-06T18:06:56.329Z,25.40
2022-09-06T18:09:22.841Z,25.30
2022-09-06T18:11:49.407Z,25.20
2022-09-06T18:14:16.101Z,25.00
2022-09-06T18:16:45.097Z,24.90
2022-09-06T18:19:12.236Z,24.90
2022-09-06T18:21:40.357Z,24.80
2022-09-06T18:24:07.147Z,24.70
2022-09-06T18:26:33.681Z,24.60
2022-09-06T18:29:00.216Z,24.60
2022-09-06T18:31:27.255Z,24.60
2022-09-06T18:33:53.824Z,24.50
2022-09-06T18:36:20.418Z,24.40
2022-09-06T18:38:47.008Z,24.30
2022-09-06T18:41:33.495Z,24.20
2022-09-06T18:44:02.419Z,24.10
2022-09-06T18:46:28.963Z,24.00
2022-09-06T18:48:55.863Z,24.00
2022-09-06T18:51:22.533Z,23.90
2022-09-06T18:53:49.044Z,23.80
2022-09-06T18:56:15.561Z,23.80
2022-09-06T18:58:42.168Z,23.70
2022-09-06T19:01:08.877Z,23.70
2022-09-06T19:03:35.824Z,23.70
2022-09-06T19:06:02.348Z,23.60
2022-09-06T19:08:28.934Z,23.50
2022-09-06T19:10:55.488Z,23.50
2022-09-06T19:13:22.348Z,23.50
2022-09-06T19:15:49.569Z,23.40
2022-09-06T19:18:16.136Z,23.40
2022-09-06T19:20:42.697Z,23.40
2022-09-06T19:23:09.201Z,23.30
2022-09-06T19:25:35.820Z,23.30
2022-09-06T19:28:02.397Z,23.30
2022-09-06T19:30:28.933Z,23.30
2022-09-06T19:32:55.453Z,23.30
2022-09-06T19:35:22.125Z,23.20
2022-09-06T19:37:48.803Z,23.20
2022-09-06T19:40:15.432Z,23.20
2022-09-06T19:42:41.999Z,23.10
2022-09-06T19:45:09.627Z,23.10
2022-09-06T19:47:36.241Z,23.10
2022-09-06T19:50:03.431Z,23.10
2022-09-06T19:52:29.948Z,23.10
2022-09-06T19:54:56.451Z,23.10
2022-09-06T19:57:23.025Z,23.10
2022-09-06T19:59:49.561Z,23.00
2022-09-06T20:02:16.201Z,23.10
2022-09-06T20:04:42.819Z,23.00
2022-09-06T20:07:09.439Z,22.90
2022-09-06T20:09:36.006Z,23.00
2022-09-06T20:12:02.727Z,22.90
2022-09-06T20:14:29.296Z,22.80
2022-09-06T20:17:06.552Z,22.60
2022-09-06T20:19:42.361Z,22.50
2022-09-06T20:22:10.878Z,22.40
2022-09-06T20:24:37.982Z,22.40
2022-09-06T20:27:04.514Z,22.40
2022-09-06T20:29:31.035Z,22.40
2022-09-06T20:31:57.678Z,22.40
2022-09-06T20:34:24.208Z,22.40
2022-09-06T20:36:50.748Z,22.50
2022-09-06T20:39:17.603Z,22.50
2022-09-06T20:41:44.195Z,22.60
2022-09-06T20:44:10.702Z,22.70
2022-09-06T20:46:37.230Z,22.70
2022-09-06T20:49:05.018Z,22.70
2022-09-06T20:51:31.663Z,22.80
2022-09-06T20:53:58.164Z,22.80
2022-09-06T20:56:24.769Z,22.80
2022-09-06T20:58:51.348Z,22.90
2022-09-06T21:01:22.317Z,22.90
2022-09-06T21:03:48.921Z,22.90
2022-09-06T21:06:15.469Z,22.90
2022-09-06T21:08:43.034Z,22.90
2022-09-06T21:11:09.869Z,22.90
2022-09-06T21:13:36.432Z,22.90
2022-09-06T21:16:03.037Z,22.80
2022-09-06T21:18:29.758Z,22.90
2022-09-06T21:20:56.382Z,22.80
2022-09-06T21:23:22.947Z,22.80
2022-09-06T21:25:49.483Z,22.80
2022-09-06T21:28:15.990Z,22.90
2022-09-06T21:30:42.492Z,22.80
2022-09-06T21:33:09.010Z,22.80
2022-09-06T21:35:35.538Z,22.80
2022-09-06T21:38:02.073Z,22.80
2022-09-06T21:40:28.604Z,22.80
2022-09-06T21:42:55.159Z,22.80
2022-09-06T21:45:21.655Z,22.70
2022-09-06T21:47:48.198Z,22.70
2022-09-06T21:50:15.329Z,22.70
2022-09-06T21:52:41.848Z,22.70
2022-09-06T21:55:11.313Z,22.60
2022-09-06T21:57:41.509Z,22.60
2022-09-06T22:00:08.045Z,22.60
2022-09-06T22:02:34.677Z,22.50
2022-09-06T22:05:01.304Z,22.40
2022-09-06T22:07:27.818Z,22.40
2022-09-06T22:09:54.432Z,22.30
2022-09-06T22:12:20.979Z,22.40
2022-09-06T22:14:47.549Z,22.30
2022-09-06T22:17:14.076Z,22.30
2022-09-06T22:19:40.594Z,22.30
2022-09-06T22:22:07.153Z,22.20
2022-09-06T22:24:33.655Z,22.20
2022-09-06T22:27:00.187Z,22.10
2022-09-06T22:29:26.801Z,22.10
2022-09-06T22:31:53.411Z,22.10
2022-09-06T22:34:19.931Z,22.10
2022-09-06T22:36:46.603Z,22.10
2022-09-06T22:39:13.144Z,22.10
2022-09-06T22:41:39.714Z,22.10
2022-09-06T22:44:06.776Z,22.10
2022-09-06T22:46:33.390Z,22.10
2022-09-06T22:49:00.113Z,22.10
2022-09-06T22:51:27.057Z,22.10
2022-09-06T22:53:53.588Z,22.10
2022-09-06T22:56:20.161Z,22.10
2022-09-06T22:58:46.686Z,22.10
2022-09-06T23:01:13.343Z,22.10
2022-09-06T23:03:40.604Z,22.00
2022-09-06T23:06:07.163Z,22.00
2022-09-06T23:08:33.703Z,22.00
2022-09-06T23:11:00.209Z,22.00
2022-09-06T23:13:26.732Z,22.00
2022-09-06T23:15:53.418Z,21.90
2022-09-06T23:18:20.009Z,22.00
2022-09-06T23:20:46.547Z,21.90
2022-09-06T23:23:13.572Z,21.90
2022-09-06T23:25:40.247Z,21.90
2022-09-06T23:28:06.945Z,21.90
2022-09-06T23:30:33.522Z,21.90
2022-09-06T23:33:00.080Z,21.90
2022-09-06T23:35:26.642Z,21.90
2022-09-06T23:37:53.776Z,21.90
2022-09-06T23:40:20.513Z,21.90
2022-09-06T23:42:47.114Z,21.90
2022-09-06T23:45:13.719Z,21.90
2022-09-06T23:47:41.122Z,21.90
2022-09-06T23:50:07.693Z,21.90
2022-09-06T23:52:34.213Z,21.90
2022-09-06T23:55:00.943Z,21.80
2022-09-06T23:57:27.451Z,21.90
2022-09-06T23:59:53.943Z,21.90
